Time;durP1;ratioP1;P1;durP2;ratioP2;P2;SDS_P1;SDS_P2;PMS_P1;PMS_P2;Temp;Humidity;BMP_temperature;BMP_pressure;BME280_temperature;BME280_humidity;BME280_pressure;Samples;Min_cycle;Max_cycle;Signal;HPM_P1;HPM_P2
2022/02/05 00:02:17;;;;;;;;;;;2.70;99.90;;;;;;4955433;29;20114;-79
2022/02/05 00:04:44;;;;;;;31.25;16.45;;;2.80;99.90;;;;;;4938443;29;19906;-79
2022/02/05 00:07:11;;;;;;;26.92;13.98;;;2.80;99.90;;;;;;4937678;29;20023;-79
2022/02/05 00:15:20;;;;;;;26.98;13.27;;;2.80;99.90;;;;;;4955694;29;20572;-79
2022/02/05 00:39:51;;;;;;;41.72;18.73;;;2.70;99.90;;;;;;4958253;29;20035;-79
2022/02/05 00:42:30;;;;;;;36.20;18.33;;;2.70;99.90;;;;;;4956975;29;20032;-79
2022/02/05 00:44:55;;;;;;;38.92;20.02;;;2.70;99.90;;;;;;4937952;29;20032;-78
2022/02/05 00:47:21;;;;;;;;;;;2.80;99.90;;;;;;4938851;29;20032;-78
2022/02/05 00:49:51;;;;;;;48.40;23.17;;;2.70;99.90;;;;;;4943279;29;19894;-78
2022/02/05 00:52:19;;;;;;;40.60;21.45;;;2.80;99.90;;;;;;4955837;29;20038;-79
2022/02/05 00:54:49;;;;;;;37.78;19.15;;;2.80;99.90;;;;;;4941084;29;20020;-79
2022/02/05 00:57:34;;;;;;;37.05;20.45;;;2.80;99.90;;;;;;4956787;29;20067;-79
2022/02/05 01:00:00;;;;;;;34.92;18.30;;;2.80;99.90;;;;;;4960358;29;20012;-78
2022/02/05 01:02:26;;;;;;;38.00;17.17;;;2.70;99.90;;;;;;4942655;29;20012;-79
2022/02/05 01:04:51;;;;;;;;;;;2.70;99.90;;;;;;4943643;29;20024;-78
2022/02/05 01:07:17;;;;;;;37.30;19.83;;;2.60;99.90;;;;;;4959664;29;19938;-78
2022/02/05 01:09:46;;;;;;;;;;;2.60;99.90;;;;;;4960837;29;20083;-78
2022/02/05 01:12:12;;;;;;;40.67;21.88;;;2.60;99.90;;;;;;4958474;29;19946;-79
2022/02/05 01:14:58;;;;;;;41.20;20.17;;;2.60;99.90;;;;;;4937329;29;20047;-79
2022/02/05 01:17:32;;;;;;;40.05;21.63;;;2.70;99.90;;;;;;4941245;29;20051;-79
2022/02/05 01:22:31;;;;;;;47.78;24.33;;;2.60;99.90;;;;;;4959589;29;20039;-79
2022/02/05 01:24:57;;;;;;;43.38;24.48;;;2.60;99.90;;;;;;4957901;29;20039;-78
2022/02/05 01:27:37;;;;;;;;;;;2.70;99.90;;;;;;4942827;29;20084;-79
2022/02/05 01:32:32;;;;;;;33.40;18.13;;;2.60;99.90;;;;;;4960112;29;20036;-79
2022/02/05 01:35:09;;;;;;;32.42;17.30;;;2.60;99.90;;;;;;4943521;29;20024;-79
2022/02/05 01:56:27;;;;;;;30.52;15.75;;;2.60;99.90;;;;;;4959068;29;20051;-79
2022/02/05 02:07:04;;;;;;;27.95;15.32;;;2.60;99.90;;;;;;4959197;29;20032;-79
2022/02/05 02:15:05;;;;;;;36.70;18.33;;;2.60;99.90;;;;;;5909174;23;20022;-79
2022/02/05 02:22:52;;;;;;;43.80;21.63;;;2.60;99.90;;;;;;4946095;29;20040;-78
2022/02/05 02:30:32;;;;;;;35.08;17.52;;;2.70;99.90;;;;;;4959951;29;19919;-79
2022/02/05 02:33:08;;;;;;;31.10;17.08;;;2.60;99.90;;;;;;4943223;29;20012;-79
2022/02/05 02:35:38;;;;;;;37.08;19.20;;;2.60;99.90;;;;;;4956965;29;20101;-79
2022/02/05 02:38:10;;;;;;;30.20;17.90;;;2.70;99.90;;;;;;4938561;29;20042;-79
2022/02/05 02:40:58;;;;;;;35.47;17.38;;;2.70;99.90;;;;;;4956060;29;20083;-79
2022/02/05 02:43:27;;;;;;;37.60;17.92;;;2.70;99.90;;;;;;4939637;29;20083;-79
2022/02/05 02:45:53;;;;;;;35.15;18.58;;;2.70;99.90;;;;;;4939494;29;20000;-80
2022/02/05 02:48:19;;;;;;;;;;;2.70;99.90;;;;;;4937239;29;20050;-79
2022/02/05 02:56:45;;;;;;;39.80;20.00;;;2.80;99.90;;;;;;4959788;29;20110;-80
2022/02/05 03:02:12;;;;;;;41.22;19.60;;;2.70;99.90;;;;;;4950966;29;20020;-80
2022/02/05 03:04:38;;;;;;;41.95;20.52;;;2.70;99.90;;;;;;4956286;29;20032;-79
2022/02/05 03:07:04;;;;;;;;;;;2.70;99.90;;;;;;4949045;29;20523;-79
2022/02/05 03:09:29;;;;;;;36.03;19.30;;;2.80;99.90;;;;;;4929778;29;19922;-79
2022/02/05 03:11:55;;;;;;;;;;;2.80;99.90;;;;;;4930446;29;20027;-79
2022/02/05 03:14:21;;;;;;;40.38;20.30;;;2.80;99.90;;;;;;4947218;29;19917;-79
2022/02/05 03:16:51;;;;;;;38.58;21.02;;;2.90;99.90;;;;;;4930653;29;20056;-79
2022/02/05 03:19:18;;;;;;;45.97;22.08;;;2.90;99.90;;;;;;4948125;29;20043;-79
2022/02/05 03:21:44;;;;;;;43.10;21.20;;;2.80;99.90;;;;;;4949082;29;20027;-79
2022/02/05 03:24:10;;;;;;;;;;;2.90;99.90;;;;;;4950041;29;20028;-78
2022/02/05 03:26:37;;;;;;;67.43;30.47;;;2.90;99.90;;;;;;4932016;29;19907;-79
2022/02/05 03:29:08;;;;;;;66.95;30.48;;;3.00;99.90;;;;;;4933916;29;20454;-79
2022/02/05 03:31:36;;;;;;;52.03;22.13;;;3.00;99.90;;;;;;4935842;29;20488;-80
2022/02/05 03:34:02;;;;;;;45.40;22.63;;;3.10;99.90;;;;;;4936392;29;20128;-78
2022/02/05 03:36:28;;;;;;;40.80;19.45;;;3.00;99.90;;;;;;4936072;29;20038;-79
2022/02/05 03:38:54;;;;;;;;;;;2.90;99.90;;;;;;4954012;29;20024;-78
2022/02/05 03:41:19;;;;;;;47.75;23.30;;;2.90;99.90;;;;;;4934970;29;19922;-79
2022/02/05 03:43:45;;;;;;;;;;;2.90;99.90;;;;;;4937137;29;20035;-79
2022/02/05 03:46:11;;;;;;;38.45;17.17;;;2.90;99.90;;;;;;4952216;29;19911;-78
2022/02/05 03:48:37;;;;;;;;;;;3.00;99.90;;;;;;4952458;29;20024;-79
2022/02/05 03:51:03;;;;;;;40.78;21.40;;;3.00;99.90;;;;;;4936041;29;19914;-79
2022/02/05 03:53:29;;;;;;;38.90;20.05;;;3.10;99.90;;;;;;4959391;29;20043;-79
2022/02/05 03:55:55;;;;;;;43.15;21.02;;;3.10;99.90;;;;;;4960664;29;20016;-79
2022/02/05 03:58:21;;;;;;;;;;;3.10;99.90;;;;;;4945350;29;20047;-79
2022/02/05 04:00:47;;;;;;;28.38;14.90;;;3.10;99.90;;;;;;4959707;29;19915;-79
2022/02/05 04:03:13;;;;;;;;;;;3.20;99.90;;;;;;4940031;29;20047;-79
2022/02/05 04:05:39;;;;;;;27.58;15.23;;;3.20;99.90;;;;;;4940112;29;19898;-79
2022/02/05 04:16:08;;;;;;;51.88;25.85;;;3.20;99.90;;;;;;5388171;23;20044;-79
2022/02/05 04:18:34;;;;;;;61.38;28.77;;;3.10;99.90;;;;;;4958185;29;20039;-80
2022/02/05 04:20:59;;;;;;;;;;;3.10;99.90;;;;;;4941823;29;20114;-80
2022/02/05 04:23:25;;;;;;;62.65;28.67;;;3.10;99.90;;;;;;4958069;29;19898;-80
2022/02/05 04:25:51;;;;;;;42.00;21.70;;;3.10;99.90;;;;;;4958391;29;20035;-80
2022/02/05 04:28:17;;;;;;;45.38;23.70;;;3.00;99.90;;;;;;4954417;29;20036;-80
2022/02/05 04:30:42;;;;;;;;;;;3.00;99.90;;;;;;4954175;29;20442;-79
2022/02/05 04:33:08;;;;;;;59.63;26.73;;;2.80;99.90;;;;;;4953015;29;19907;-80
2022/02/05 04:35:34;;;;;;;;;;;2.70;99.90;;;;;;4950831;29;20051;-79
2022/02/05 04:38:02;;;;;;;50.60;23.88;;;2.60;99.90;;;;;;4949598;29;19917;-80
2022/02/05 04:40:33;;;;;;;54.65;23.73;;;2.50;99.90;;;;;;4949875;29;20038;-79
2022/02/05 04:48:39;;;;;;;34.38;15.75;;;2.20;99.90;;;;;;4952839;29;19918;-79
2022/02/05 04:51:03;;;;;;;37.55;17.25;;;2.20;99.90;;;;;;4952440;29;20059;-77
2022/02/05 04:56:45;;;;;;;32.83;15.70;;;2.20;99.90;;;;;;4917017;29;20523;-77
2022/02/05 05:02:20;;;;;;;34.83;17.75;;;2.10;99.90;;;;;;4948479;29;20027;-78
2022/02/05 05:13:02;;;;;;;35.05;18.83;;;1.90;99.90;;;;;;4959016;29;20051;-78
2022/02/05 05:19:12;;;;;;;49.13;20.92;;;1.80;99.90;;;;;;4942924;29;20059;-78
2022/02/05 05:20:58;;;;;;;35.10;18.55;;;1.70;99.90;;;;;;4954663;29;20031;-78
2022/02/05 05:23:23;;;;;;;;;;;1.70;99.90;;;;;;4938225;29;20036;-77
2022/02/05 05:25:49;;;;;;;35.17;17.65;;;1.60;99.90;;;;;;4953697;29;19911;-77
2022/02/05 05:28:15;;;;;;;34.15;17.17;;;1.50;99.90;;;;;;4937257;29;20153;-77
2022/02/05 05:30:41;;;;;;;34.38;17.75;;;1.30;99.90;;;;;;4935923;29;20039;-77
2022/02/05 05:33:07;;;;;;;34.15;17.85;;;1.20;99.90;;;;;;4954193;29;20051;-78
2022/02/05 05:35:33;;;;;;;35.65;17.15;;;1.20;99.90;;;;;;4952126;29;20055;-77
2022/02/05 05:37:58;;;;;;;;;;;1.10;99.90;;;;;;4947298;29;20039;-77
2022/02/05 05:40:25;;;;;;;38.53;19.42;;;1.00;99.90;;;;;;4930836;29;19954;-77
2022/02/05 05:43:02;;;;;;;;;;;0.90;99.90;;;;;;4949019;29;20043;-78
2022/02/05 05:47:58;;;;;;;50.35;25.52;;;0.80;99.90;;;;;;4954000;29;20031;-78
2022/02/05 05:53:07;;;;;;;36.78;16.70;;;0.70;99.90;;;;;;4944313;29;20063;-77
2022/02/05 05:55:33;;;;;;;31.40;16.80;;;0.70;99.90;;;;;;4935153;29;20042;-78
2022/02/05 05:58:00;;;;;;;33.53;17.52;;;0.80;99.90;;;;;;4952491;29;20039;-77
2022/02/05 06:00:26;;;;;;;47.55;22.23;;;0.70;99.90;;;;;;4930871;29;20079;-77
2022/02/05 06:02:51;;;;;;;;;;;0.70;99.90;;;;;;4950359;29;20036;-77
2022/02/05 06:05:17;;;;;;;48.83;23.60;;;0.60;99.90;;;;;;4934793;29;19907;-76
2022/02/05 06:07:43;;;;;;;54.05;24.88;;;0.50;99.90;;;;;;4928354;29;20028;-77
2022/02/05 06:10:08;;;;;;;;;;;0.50;99.90;;;;;;4944668;29;20559;-78
2022/02/05 06:12:34;;;;;;;62.10;27.20;;;0.50;99.90;;;;;;4946937;29;19917;-76
2022/02/05 06:15:03;;;;;;;;;;;0.60;99.90;;;;;;4948927;29;20054;-77
2022/02/05 06:17:29;;;;;;;54.58;26.42;;;0.70;99.90;;;;;;4949678;29;19929;-78
2022/02/05 06:19:55;;;;;;;;;;;0.80;99.90;;;;;;4941579;29;20036;-78
2022/02/05 06:22:21;;;;;;;58.80;30.55;;;0.80;99.90;;;;;;4955480;29;19922;-77
2022/02/05 06:24:46;;;;;;;;;;;1.00;99.90;;;;;;4957104;29;20088;-77
2022/02/05 06:27:12;;;;;;;47.65;25.23;;;1.10;99.90;;;;;;4956770;29;19978;-79
2022/02/05 06:29:38;;;;;;;;;;;1.20;99.90;;;;;;4956779;29;20095;-78
2022/02/05 06:32:04;;;;;;;55.33;26.02;;;1.20;99.90;;;;;;4957483;29;19933;-79
2022/02/05 06:34:30;;;;;;;75.35;24.77;;;1.20;99.90;;;;;;4957609;29;20035;-78
2022/02/05 06:36:56;;;;;;;;;;;1.10;99.90;;;;;;4956886;29;20027;-77
2022/02/05 06:39:22;;;;;;;53.88;24.85;;;1.10;99.90;;;;;;4957851;29;19946;-77
2022/02/05 06:41:48;;;;;;;56.40;27.20;;;1.10;99.90;;;;;;4938834;29;20023;-78
2022/02/05 06:44:15;;;;;;;54.00;27.52;;;1.10;99.90;;;;;;4956051;29;20036;-77
2022/02/05 06:46:50;;;;;;;52.22;26.23;;;1.30;99.90;;;;;;4944646;29;20098;-78
2022/02/05 06:49:16;;;;;;;49.20;24.98;;;1.50;99.90;;;;;;4938940;29;20052;-79
2022/02/05 06:51:42;;;;;;;48.42;25.98;;;1.90;99.90;;;;;;4955806;29;20004;-80
2022/02/05 06:54:08;;;;;;;;;;;2.60;99.90;;;;;;4942323;29;20024;-80
2022/02/05 06:56:34;;;;;;;81.72;37.05;;;3.00;99.90;;;;;;4956806;29;19902;-79
2022/02/05 06:59:00;;;;;;;54.03;28.30;;;3.40;99.90;;;;;;4957220;29;20039;-79
2022/02/05 07:01:25;;;;;;;;;;;3.90;99.90;;;;;;4953878;29;20036;-79
2022/02/05 07:03:51;;;;;;;35.05;17.65;;;4.20;99.90;;;;;;4935334;29;19890;-79
2022/02/05 07:06:17;;;;;;;;;;;4.70;99.90;;;;;;4945191;29;20059;-79
2022/02/05 07:08:43;;;;;;;33.88;19.85;;;5.10;99.90;;;;;;4964779;29;19914;-79
2022/02/05 07:11:09;;;;;;;;;;;5.70;99.90;;;;;;4964549;28;20027;-78
2022/02/05 07:13:35;;;;;;;37.60;19.45;;;6.50;99.90;;;;;;4948501;29;19894;-78
2022/02/05 07:16:12;;;;;;;35.03;18.40;;;6.80;99.90;;;;;;4948210;29;20099;-79
2022/02/05 07:19:16;;;;;;;33.95;17.73;;;6.90;99.90;;;;;;4947198;29;20010;-79
2022/02/05 07:21:47;;;;;;;36.40;18.13;;;6.50;99.90;;;;;;4959342;29;20036;-79
2022/02/05 07:29:48;;;;;;;35.88;19.73;;;5.70;99.90;;;;;;4962892;29;20099;-79
2022/02/05 07:32:14;;;;;;;41.92;20.35;;;5.70;99.90;;;;;;4937069;29;20028;-78
2022/02/05 07:34:40;;;;;;;31.77;19.10;;;5.80;99.90;;;;;;4951544;29;20051;-78
2022/02/05 07:37:06;;;;;;;34.15;19.75;;;5.80;99.90;;;;;;4958857;28;20028;-78
2022/02/05 07:39:35;;;;;;;;;;;5.80;99.90;;;;;;4940604;29;20036;-79
2022/02/05 07:42:02;;;;;;;29.85;17.40;;;5.70;99.90;;;;;;4935708;29;19950;-80
2022/02/05 07:44:29;;;;;;;32.95;17.52;;;5.60;99.90;;;;;;4960354;29;20047;-79
2022/02/05 07:46:59;;;;;;;28.60;18.35;;;5.60;99.90;;;;;;4959194;29;20044;-79
2022/02/05 07:49:25;;;;;;;30.25;15.82;;;5.60;99.90;;;;;;4944239;29;20022;-79
2022/02/05 07:51:51;;;;;;;;;;;5.80;99.90;;;;;;4962597;29;20015;-79
2022/02/05 07:54:17;;;;;;;28.88;15.80;;;6.30;99.90;;;;;;4960902;29;19918;-79
2022/02/05 07:56:45;;;;;;;32.10;19.67;;;6.90;99.90;;;;;;4944851;29;20015;-79
2022/02/05 07:59:12;;;;;;;29.08;15.50;;;7.30;99.90;;;;;;4952819;29;20024;-79
2022/02/05 08:01:38;;;;;;;27.15;15.68;;;7.50;99.90;;;;;;4962027;29;20031;-79
2022/02/05 08:04:04;;;;;;;22.85;14.77;;;7.60;99.90;;;;;;4944751;29;20039;-79
2022/02/05 08:06:31;;;;;;;;;;;7.90;99.90;;;;;;4946624;29;20038;-79
2022/02/05 08:14:10;;;;;;;17.98;11.50;;;8.20;99.70;;;;;;5704543;23;20042;-79
2022/02/05 08:19:12;;;;;;;;;;;8.00;99.90;;;;;;4962448;29;20015;-79
2022/02/05 08:21:38;;;;;;;8.88;5.55;;;8.00;99.90;;;;;;4962530;28;19895;-79
2022/02/05 08:24:05;;;;;;;12.15;6.88;;;8.00;99.90;;;;;;4960422;29;20012;-80
2022/02/05 08:26:32;;;;;;;;;;;8.10;99.90;;;;;;4944966;29;20051;-79
2022/02/05 08:29:01;;;;;;;11.43;6.13;;;8.30;99.90;;;;;;4943083;29;19915;-80
2022/02/05 08:31:28;;;;;;;11.02;6.65;;;8.50;99.90;;;;;;4960290;29;20036;-80
2022/02/05 08:33:54;;;;;;;10.20;5.78;;;8.90;99.90;;;;;;4957411;29;20514;-78
2022/02/05 08:36:22;;;;;;;;;;;9.40;99.30;;;;;;4951741;29;20095;-78
2022/02/05 08:38:49;;;;;;;10.30;5.93;;;9.90;96.60;;;;;;4956080;29;19911;-79
2022/02/05 08:41:16;;;;;;;11.93;6.22;;;10.30;94.70;;;;;;4956785;29;20012;-79
2022/02/05 08:43:42;;;;;;;10.98;5.88;;;10.60;92.60;;;;;;4958946;29;20028;-80
2022/02/05 08:46:07;;;;;;;;;;;10.90;90.30;;;;;;4944157;29;20020;-80
2022/02/05 08:48:34;;;;;;;10.07;5.25;;;11.40;85.30;;;;;;4958545;29;19948;-79
2022/02/05 08:51:00;;;;;;;9.95;5.93;;;11.80;77.80;;;;;;4952285;29;20031;-79
2022/02/05 08:53:25;;;;;;;;;;;12.20;75.10;;;;;;4955404;29;20035;-79
2022/02/05 08:55:53;;;;;;;6.18;3.85;;;12.70;68.20;;;;;;4958869;29;19910;-80
2022/02/05 08:58:20;;;;;;;6.70;3.72;;;13.00;65.60;;;;;;4958717;29;20543;-79
2022/02/05 09:01:06;;;;;;;7.38;3.60;;;13.30;62.00;;;;;;4957712;29;20020;-79
2022/02/05 09:03:39;;;;;;;6.55;3.47;;;13.40;60.70;;;;;;4955803;29;20031;-79
2022/02/05 09:06:06;;;;;;;14.57;5.13;;;13.60;56.30;;;;;;4951811;29;20390;-79
2022/02/05 09:08:37;;;;;;;6.00;3.42;;;13.80;54.90;;;;;;4951012;29;20056;-79
2022/02/05 09:16:13;;;;;;;6.45;3.17;;;14.00;50.50;;;;;;4958129;29;20067;-79
2022/02/05 09:18:40;;;;;;;6.22;3.35;;;13.70;50.80;;;;;;4935601;29;20038;-81
2022/02/05 09:21:06;;;;;;;8.40;3.72;;;13.80;51.00;;;;;;4939853;29;20035;-85
2022/02/05 09:23:33;;;;;;;6.13;3.47;;;13.90;51.10;;;;;;4933428;29;20412;-84
2022/02/05 09:26:00;;;;;;;5.78;3.10;;;14.30;48.20;;;;;;4934145;29;20038;-82
2022/02/05 09:28:28;;;;;;;6.00;3.42;;;14.40;46.10;;;;;;4934295;29;20031;-84
2022/02/05 09:33:35;;;;;;;6.82;3.33;;;14.50;43.80;;;;;;4934731;29;20090;-85
2022/02/05 09:36:01;;;;;;;11.20;6.30;;;14.50;43.70;;;;;;4932078;29;20052;-81
2022/02/05 09:38:27;;;;;;;7.10;3.08;;;14.30;44.10;;;;;;4914029;29;20519;-84
2022/02/05 09:40:52;;;;;;;5.68;3.50;;;14.40;43.40;;;;;;4911042;29;20028;-83
2022/02/05 09:43:27;;;;;;;13.38;4.65;;;14.20;44.20;;;;;;4910977;29;20031;-82
2022/02/05 09:45:56;;;;;;;8.65;3.72;;;13.50;45.60;;;;;;4910017;29;20040;-83
2022/02/05 09:48:23;;;;;;;6.28;3.25;;;12.70;47.10;;;;;;4921933;29;20051;-78
2022/02/05 09:50:49;;;;;;;6.25;2.92;;;12.40;48.40;;;;;;4924534;29;20036;-78
2022/02/05 09:53:18;;;;;;;6.40;3.30;;;11.60;48.70;;;;;;4926625;29;20025;-78
2022/02/05 09:55:46;;;;;;;10.60;3.53;;;11.30;49.80;;;;;;4931956;29;20023;-80
2022/02/05 09:58:14;;;;;;;6.07;3.33;;;10.80;50.90;;;;;;4937675;29;20016;-80
2022/02/05 10:00:40;;;;;;;8.25;4.20;;;10.10;52.10;;;;;;4917837;29;20036;-80
2022/02/05 10:03:22;;;;;;;;;;;9.80;53.50;;;;;;4935368;29;20025;-79
2022/02/05 10:11:09;;;;;;;4.18;2.30;;;9.30;56.40;;;;;;5162404;23;20056;-79
2022/02/05 10:13:35;;;;;;;;;;;9.40;57.00;;;;;;4947705;29;20012;-79
2022/02/05 10:16:01;;;;;;;8.38;3.10;;;9.50;56.40;;;;;;4930691;29;19918;-78
2022/02/05 10:18:31;;;;;;;;;;;9.30;56.80;;;;;;4940831;29;20036;-79
2022/02/05 10:21:00;;;;;;;5.22;2.00;;;9.20;58.20;;;;;;4926358;29;19997;-78
2022/02/05 10:23:28;;;;;;;6.97;3.00;;;9.20;58.80;;;;;;4945724;29;20032;-79
2022/02/05 10:25:55;;;;;;;3.45;2.08;;;9.10;58.10;;;;;;4958014;29;20027;-80
2022/02/05 10:28:21;;;;;;;6.15;3.10;;;9.20;57.90;;;;;;4955056;29;20035;-80
2022/02/05 10:30:53;;;;;;;5.72;2.63;;;9.00;58.40;;;;;;4955818;29;20047;-79
2022/02/05 10:33:42;;;;;;;8.98;1.85;;;9.00;59.80;;;;;;4941851;29;20031;-77
2022/02/05 10:36:23;;;;;;;7.25;3.75;;;9.10;59.40;;;;;;4942074;29;20098;-78
2022/02/05 10:39:25;;;;;;;5.47;1.95;;;9.10;59.90;;;;;;4957465;29;20008;-78
2022/02/05 10:44:36;;;;;;;3.47;1.00;;;9.30;55.80;;;;;;4948176;29;20152;-79
2022/02/05 10:47:02;;;;;;;2.65;0.80;;;9.30;55.80;;;;;;4944559;29;20027;-78
2022/02/05 10:49:49;;;;;;;;;;;9.30;55.50;;;;;;4947541;29;20034;-78
2022/02/05 10:52:25;;;;;;;5.23;0.90;;;9.30;55.50;;;;;;4933240;29;20443;-77
2022/02/05 10:55:22;;;;;;;2.13;0.98;;;9.30;55.50;;;;;;4938239;29;20043;-79
2022/02/05 10:58:26;;;;;;;4.50;0.90;;;9.30;55.40;;;;;;4961011;29;20016;-78
2022/02/05 11:05:55;;;;;;;108.88;33.20;;;9.20;54.60;;;;;;4948510;29;19930;-77
2022/02/05 11:08:22;;;;;;;18.20;7.43;;;9.20;55.10;;;;;;4929970;29;20719;-79
2022/02/05 11:18:57;;;;;;;2.03;0.60;;;9.20;55.00;;;;;;4962625;29;20080;-78
2022/02/05 11:21:26;;;;;;;0.90;0.40;;;9.40;54.40;;;;;;4958110;29;20058;-79
2022/02/05 11:23:59;;;;;;;1.23;0.40;;;9.40;54.40;;;;;;4931544;29;20034;-79
2022/02/05 11:26:25;;;;;;;1.25;0.60;;;9.40;53.90;;;;;;4931334;29;20028;-77
2022/02/05 11:28:55;;;;;;;1.40;0.40;;;9.40;52.90;;;;;;4954594;29;20039;-79
2022/02/05 11:31:36;;;;;;;7.72;1.02;;;9.40;53.10;;;;;;4940657;29;20056;-79
2022/02/05 11:34:14;;;;;;;21.20;7.78;;;9.40;53.00;;;;;;4952264;29;20116;-80
2022/02/05 11:36:57;;;;;;;4.07;0.93;;;9.30;53.00;;;;;;4957958;29;20040;-79
2022/02/05 11:39:23;;;;;;;1.48;0.50;;;9.30;52.90;;;;;;4959664;28;20023;-79
2022/02/05 11:41:49;;;;;;;2.72;0.57;;;9.10;51.80;;;;;;4954696;29;20024;-80
2022/02/05 11:44:22;;;;;;;3.22;1.15;;;9.20;51.80;;;;;;4962735;29;20012;-78
2022/02/05 11:47:06;;;;;;;3.72;1.40;;;9.20;51.80;;;;;;4939692;29;20602;-78
2022/02/05 11:49:51;;;;;;;0.73;0.40;;;8.90;52.80;;;;;;4951157;29;20055;-79
2022/02/05 11:52:35;;;;;;;1.10;0.30;;;9.00;53.40;;;;;;4946684;29;20091;-79
2022/02/05 11:55:09;;;;;;;3.28;0.50;;;9.00;53.00;;;;;;4945458;29;20123;-79
2022/02/05 11:57:44;;;;;;;1.70;0.40;;;9.00;52.80;;;;;;4962930;29;20020;-79
2022/02/05 12:00:23;;;;;;;3.65;0.60;;;9.00;53.40;;;;;;4961682;29;20032;-79
2022/02/05 12:05:28;;;;;;;1.70;0.65;;;9.00;53.70;;;;;;4958357;29;20024;-79
2022/02/05 12:08:03;;;;;;;4.68;1.58;;;9.00;53.60;;;;;;4952771;29;20785;-79
2022/02/05 12:10:45;;;;;;;4.20;1.10;;;9.00;53.70;;;;;;4935096;29;20028;-78
2022/02/05 12:13:24;;;;;;;10.65;3.40;;;9.00;54.40;;;;;;4933983;29;20052;-79
2022/02/05 12:15:56;;;;;;;3.22;1.20;;;8.90;54.40;;;;;;4939737;29;20035;-79
2022/02/05 12:24:03;;;;;;;4.85;1.40;;;8.90;53.50;;;;;;4951550;29;20057;-78
2022/02/05 12:26:29;;;;;;;1.58;0.45;;;8.80;53.60;;;;;;4947239;29;20047;-76
2022/02/05 12:29:02;;;;;;;11.07;3.70;;;8.80;52.60;;;;;;4935300;29;20035;-79
2022/02/05 12:31:34;;;;;;;14.75;5.18;;;8.70;52.90;;;;;;4948094;29;20035;-79
2022/02/05 12:34:09;;;;;;;6.03;2.50;;;8.60;53.50;;;;;;4951380;29;20096;-79
2022/02/05 12:36:44;;;;;;;5.88;2.30;;;8.50;52.60;;;;;;4933656;29;20048;-80
2022/02/05 12:39:14;;;;;;;20.50;10.18;;;8.50;53.70;;;;;;4927661;29;20042;-78
2022/02/05 12:41:53;;;;;;;10.82;3.75;;;8.60;54.30;;;;;;4946628;29;20441;-77
2022/02/05 12:44:24;;;;;;;12.40;3.67;;;8.70;53.30;;;;;;4945378;29;20063;-78
2022/02/05 12:47:08;;;;;;;12.82;4.72;;;8.70;51.70;;;;;;4950766;29;20024;-78
2022/02/05 12:49:53;;;;;;;9.40;3.53;;;8.70;51.50;;;;;;4926820;29;20192;-78
2022/02/05 12:52:30;;;;;;;3.95;1.67;;;8.70;52.10;;;;;;4950906;29;20078;-78
2022/02/05 12:55:00;;;;;;;9.18;2.63;;;8.70;51.70;;;;;;4951671;29;20051;-77
2022/02/05 12:57:27;;;;;;;32.83;14.40;;;8.70;51.60;;;;;;4936670;29;20035;-78
2022/02/05 12:59:54;;;;;;;58.28;25.15;;;8.60;51.60;;;;;;4954405;29;20040;-79
2022/02/05 13:02:23;;;;;;;19.13;9.02;;;8.80;51.70;;;;;;4952589;29;20051;-78
2022/02/05 13:04:55;;;;;;;9.80;4.78;;;8.80;51.30;;;;;;4953838;29;20039;-78
2022/02/05 13:07:23;;;;;;;19.02;10.18;;;8.80;51.50;;;;;;4935337;29;20035;-78
2022/02/05 13:10:04;;;;;;;7.10;3.35;;;8.80;51.80;;;;;;4936154;29;20030;-78
2022/02/05 13:12:32;;;;;;;13.32;5.70;;;8.80;52.10;;;;;;4952859;29;20028;-79
2022/02/05 13:15:09;;;;;;;19.45;9.20;;;8.90;52.30;;;;;;4938323;29;20064;-78
2022/02/05 13:18:03;;;;;;;5.03;1.92;;;9.10;51.50;;;;;;4954681;29;20028;-79
2022/02/05 13:26:56;;;;;;;6.78;2.17;;;9.70;49.40;;;;;;4947098;29;20133;-77
2022/02/05 13:34:23;;;;;;;3.33;0.80;;;9.80;48.40;;;;;;4958902;29;19906;-79
2022/02/05 13:37:46;;;;;;;5.45;0.73;;;9.80;48.70;;;;;;4943407;29;20024;-79
2022/02/05 13:42:18;;;;;;;6.93;0.60;;;9.50;49.00;;;;;;4949821;29;20492;-78
2022/02/05 13:44:57;;;;;;;2.53;0.57;;;9.40;50.00;;;;;;4945056;29;20492;-78
2022/02/05 13:47:25;;;;;;;3.13;0.60;;;9.10;51.50;;;;;;4921733;29;20400;-78
2022/02/05 13:50:27;;;;;;;2.80;0.65;;;8.80;52.10;;;;;;4935171;29;20544;-78
2022/02/05 13:52:55;;;;;;;1.67;0.57;;;8.60;53.30;;;;;;4901905;29;20047;-78
2022/02/05 13:55:29;;;;;;;2.50;0.60;;;8.50;53.50;;;;;;4927324;29;20587;-78
2022/02/05 13:57:56;;;;;;;2.20;0.68;;;8.30;53.70;;;;;;4943671;29;20048;-78
2022/02/05 14:00:23;;;;;;;4.68;1.30;;;8.20;53.50;;;;;;4928437;29;20035;-79
2022/02/05 14:02:59;;;;;;;3.38;0.73;;;8.10;54.10;;;;;;4920457;29;20520;-77
2022/02/05 14:05:26;;;;;;;8.43;1.40;;;7.90;55.20;;;;;;4946964;29;20429;-80
2022/02/05 14:07:52;;;;;;;6.18;0.95;;;7.80;56.30;;;;;;4929661;29;20027;-80
2022/02/05 14:10:21;;;;;;;4.50;1.25;;;7.60;57.50;;;;;;4954734;29;20045;-79
2022/02/05 14:12:54;;;;;;;3.42;1.10;;;7.50;57.80;;;;;;4928431;29;20055;-80
2022/02/05 14:15:25;;;;;;;10.55;3.75;;;7.50;58.60;;;;;;4935680;29;20036;-79
2022/02/05 14:18:13;;;;;;;2.53;0.55;;;7.40;59.70;;;;;;4930497;29;20035;-79
2022/02/05 14:20:50;;;;;;;4.93;0.80;;;7.40;60.60;;;;;;4931640;29;20024;-78
2022/02/05 14:23:18;;;;;;;5.40;1.05;;;7.40;61.10;;;;;;4933400;29;20085;-78
2022/02/05 14:26:12;;;;;;;2.53;0.68;;;7.40;60.80;;;;;;4940825;29;20031;-79
2022/02/05 14:28:57;;;;;;;1.58;0.50;;;7.50;60.80;;;;;;4958503;29;20027;-79
2022/02/05 14:31:33;;;;;;;5.13;0.50;;;7.50;60.70;;;;;;4954299;29;20024;-78
2022/02/05 14:41:59;;;;;;;7.18;3.00;;;7.40;60.00;;;;;;4955233;29;20122;-79
2022/02/05 14:44:25;;;;;;;7.95;2.30;;;7.40;58.90;;;;;;4940722;29;20020;-79
2022/02/05 14:46:51;;;;;;;;;;;7.40;59.10;;;;;;4938922;29;20409;-79
2022/02/05 14:49:17;;;;;;;18.42;5.63;;;7.50;58.70;;;;;;4954891;29;19911;-79
2022/02/05 14:51:43;;;;;;;;;;;7.40;58.20;;;;;;4953712;29;20048;-79
2022/02/05 14:54:09;;;;;;;7.30;3.05;;;7.40;57.10;;;;;;4934251;29;19911;-78
2022/02/05 14:56:36;;;;;;;15.80;7.70;;;7.40;57.10;;;;;;4951944;29;20043;-80
2022/02/05 14:59:04;;;;;;;15.63;7.95;;;7.30;56.10;;;;;;4930617;29;20032;-79
2022/02/05 15:01:30;;;;;;;7.03;2.40;;;7.30;54.30;;;;;;4946887;29;20043;-79
2022/02/05 15:03:57;;;;;;;7.45;3.35;;;7.30;52.80;;;;;;4952369;29;20031;-79
2022/02/05 15:06:26;;;;;;;5.65;2.65;;;7.20;52.50;;;;;;4940064;29;20031;-77
2022/02/05 15:08:53;;;;;;;6.03;3.15;;;7.20;52.30;;;;;;4940060;29;20028;-80
2022/02/05 15:11:19;;;;;;;2.55;1.20;;;7.00;52.70;;;;;;4930140;29;20109;-79
2022/02/05 15:13:46;;;;;;;1.60;0.70;;;7.00;52.30;;;;;;4936974;29;20052;-79
2022/02/05 15:16:14;;;;;;;1.48;0.68;;;6.90;52.50;;;;;;4944089;29;20504;-79
2022/02/05 15:18:41;;;;;;;3.03;0.73;;;6.80;53.70;;;;;;4944789;29;20832;-79
2022/02/05 15:21:11;;;;;;;2.60;0.70;;;6.70;53.90;;;;;;4938201;29;20027;-78
2022/02/05 15:23:36;;;;;;;3.95;0.40;;;6.60;54.20;;;;;;4919161;29;20126;-79
2022/02/05 15:26:04;;;;;;;4.15;1.27;;;6.60;55.20;;;;;;4949744;29;20039;-78
2022/02/05 15:28:31;;;;;;;3.50;0.80;;;6.50;57.10;;;;;;4951539;29;20028;-78
2022/02/05 15:30:57;;;;;;;3.92;0.60;;;6.40;60.30;;;;;;4942231;29;20036;-78
2022/02/05 15:33:24;;;;;;;2.90;0.82;;;6.40;62.90;;;;;;4936724;29;20058;-77
2022/02/05 15:35:52;;;;;;;1.45;0.50;;;6.30;63.70;;;;;;4944553;29;20067;-79
2022/02/05 15:38:26;;;;;;;5.57;0.90;;;6.30;64.60;;;;;;4935648;29;20036;-79
2022/02/05 15:43:52;;;;;;;5.22;1.50;;;6.00;66.20;;;;;;4961318;29;20039;-79
2022/02/05 15:46:18;;;;;;;3.90;1.15;;;6.00;67.40;;;;;;4940759;29;20043;-80
2022/02/05 15:48:45;;;;;;;3.85;1.00;;;5.90;68.80;;;;;;4941318;29;20047;-80
2022/02/05 15:51:10;;;;;;;;;;;5.80;70.20;;;;;;4941285;29;20012;-80
2022/02/05 15:53:43;;;;;;;9.00;1.70;;;5.70;71.60;;;;;;4944002;29;19918;-79
2022/02/05 15:56:21;;;;;;;4.47;1.25;;;5.60;72.60;;;;;;4945027;29;20040;-78
2022/02/05 15:58:48;;;;;;;5.13;0.90;;;5.50;74.10;;;;;;4918815;29;20027;-78
2022/02/05 16:01:15;;;;;;;3.78;1.33;;;5.40;75.70;;;;;;4942956;29;20083;-79
2022/02/05 16:03:42;;;;;;;4.90;1.48;;;5.30;77.50;;;;;;4946439;29;20042;-77
2022/02/05 16:06:07;;;;;;;3.80;1.20;;;5.30;79.20;;;;;;4943377;29;20040;-79
2022/02/05 16:08:33;;;;;;;4.72;1.17;;;5.20;80.20;;;;;;4938093;29;20044;-79
2022/02/05 16:10:59;;;;;;;;;;;5.20;80.80;;;;;;4939093;29;20050;-78
2022/02/05 16:13:25;;;;;;;7.25;1.58;;;5.00;82.70;;;;;;4953178;29;19923;-80
2022/02/05 16:15:50;;;;;;;;;;;4.90;83.50;;;;;;4962266;29;20039;-80
2022/02/05 16:18:16;;;;;;;7.13;2.33;;;4.90;83.80;;;;;;4942045;29;19907;-79
2022/02/05 16:20:41;;;;;;;;;;;4.80;83.80;;;;;;4941213;29;20064;-79
2022/02/05 16:23:07;;;;;;;10.23;2.17;;;4.70;83.30;;;;;;4936131;29;19911;-79
2022/02/05 16:25:33;;;;;;;;;;;4.80;81.20;;;;;;4935315;29;20110;-79
2022/02/05 16:27:58;;;;;;;6.82;1.20;;;4.70;81.80;;;;;;4936336;29;19935;-79
2022/02/05 16:30:25;;;;;;;;;;;4.70;80.80;;;;;;4933076;29;20031;-78